createdAt,value
2023-04-18T00:04:09.877Z,50.00
2023-04-18T00:09:12.974Z,49.85
2023-04-18T00:14:15.730Z,50.69
2023-04-18T00:19:19.094Z,50.91
2023-04-18T00:24:22.479Z,51.02
2023-04-18T00:29:25.198Z,50.88
2023-04-18T00:34:28.879Z,50.85
2023-04-18T00:39:31.638Z,51.41
2023-04-18T00:44:34.399Z,52.24
2023-04-18T00:49:37.104Z,52.67
2023-04-18T00:54:41.494Z,53.12
2023-04-18T00:59:44.503Z,53.66
2023-04-18T01:04:47.424Z,54.12
2023-04-18T01:09:50.338Z,54.16
2023-04-18T01:14:53.115Z,54.50
2023-04-18T01:19:56.888Z,54.80
2023-04-18T01:24:59.768Z,55.47
2023-04-18T01:30:02.608Z,56.10
2023-04-18T01:35:09.221Z,56.18
2023-04-18T01:40:12.400Z,56.22
2023-04-18T01:45:16.828Z,56.57
2023-04-18T01:50:19.706Z,56.61
2023-04-18T01:55:22.757Z,57.07
2023-04-18T02:00:25.793Z,57.11
2023-04-18T02:05:28.594Z,57.23
2023-04-18T02:10:31.089Z,57.66
2023-04-18T02:15:34.493Z,57.93
2023-04-18T02:20:37.392Z,57.98
2023-04-18T02:25:40.213Z,57.97
2023-04-18T02:30:42.704Z,57.67
2023-04-18T02:35:45.511Z,58.29
2023-04-18T02:40:48.219Z,58.29
2023-04-18T02:45:50.877Z,58.22
2023-04-18T02:50:54.055Z,58.58
2023-04-18T02:55:56.916Z,58.05
2023-04-18T03:01:08.357Z,57.85
2023-04-18T03:06:32.083Z,57.60
2023-04-18T03:11:37.304Z,56.30
2023-04-18T03:16:41.392Z,54.42
2023-04-18T03:21:47.804Z,52.49
2023-04-18T03:26:50.978Z,50.91
2023-04-18T03:31:57.101Z,50.28
2023-04-18T03:37:00.261Z,48.77
2023-04-18T03:42:06.128Z,47.03
2023-04-18T03:47:10.182Z,45.00
2023-04-18T03:52:16.592Z,43.69
2023-04-18T03:57:19.603Z,41.75
2023-04-18T04:02:22.677Z,40.04
2023-04-18T04:07:26.306Z,38.65
2023-04-18T04:12:29.303Z,37.53
2023-04-18T04:17:32.781Z,34.98
2023-04-18T04:22:37.006Z,34.90
2023-04-18T04:27:40.316Z,34.02
2023-04-18T04:32:44.991Z,33.14
2023-04-18T04:37:48.526Z,32.08
2023-04-18T04:43:01.698Z,31.38
2023-04-18T04:48:11.555Z,30.71
2023-04-18T04:53:14.305Z,30.21
2023-04-18T04:58:17.666Z,28.41
2023-04-18T05:03:39.052Z,27.80
2023-04-18T05:08:42.029Z,27.47
2023-04-18T05:13:45.050Z,27.51
2023-04-18T05:18:47.752Z,26.79
2023-04-18T05:23:50.404Z,25.49
2023-04-18T05:28:53.679Z,24.90
2023-04-18T05:33:56.298Z,24.60
2023-04-18T05:39:00.120Z,23.73
2023-04-18T05:44:05.680Z,23.50
2023-04-18T05:49:09.147Z,22.54
2023-04-18T05:54:12.714Z,21.29
2023-04-18T05:59:15.995Z,20.53
2023-04-18T06:04:20.190Z,20.49
2023-04-18T06:09:23.483Z,20.33
2023-04-18T06:14:26.371Z,20.21
2023-04-18T06:19:29.262Z,20.60
2023-04-18T06:24:31.933Z,19.99
2023-04-18T06:29:36.029Z,20.05
2023-04-18T06:34:40.807Z,18.98
2023-04-18T06:39:43.597Z,18.96
2023-04-18T06:44:46.272Z,19.10
2023-04-18T06:49:48.828Z,18.63
2023-04-18T06:54:51.480Z,18.25
2023-04-18T06:59:54.228Z,18.02
2023-04-18T07:04:57.391Z,17.24
2023-04-18T07:10:00.594Z,18.30
2023-04-18T07:15:04.200Z,17.87
2023-04-18T07:20:08.653Z,17.29
2023-04-18T07:25:11.855Z,17.66
2023-04-18T07:30:14.693Z,17.80
2023-04-18T07:35:17.405Z,17.77
2023-04-18T07:40:20.740Z,17.48
2023-04-18T07:45:23.796Z,17.57
2023-04-18T07:50:27.172Z,17.69
2023-04-18T07:55:30.924Z,17.80
2023-04-18T08:00:33.646Z,17.86
2023-04-18T08:05:36.474Z,17.59
2023-04-18T08:10:39.683Z,18.14
2023-04-18T08:15:42.909Z,18.22
2023-04-18T08:20:48.656Z,18.40
2023-04-18T08:25:51.271Z,18.53
2023-04-18T08:30:55.469Z,18.04
2023-04-18T08:35:58.170Z,18.21
2023-04-18T08:41:01.104Z,17.54
2023-04-18T08:46:03.971Z,17.96
2023-04-18T08:51:06.640Z,18.18
2023-04-18T08:56:11.001Z,18.55
2023-04-18T09:01:13.971Z,19.20
2023-04-18T09:06:19.504Z,18.95
2023-04-18T09:11:29.146Z,19.76
2023-04-18T09:16:45.284Z,19.30
2023-04-18T09:21:58.829Z,19.32
2023-04-18T09:27:01.750Z,19.44
2023-04-18T09:32:06.031Z,18.61
2023-04-18T09:37:16.028Z,19.29
2023-04-18T09:42:19.638Z,19.55
2023-04-18T09:47:22.438Z,20.13
2023-04-18T09:52:28.590Z,20.16
2023-04-18T09:57:33.114Z,19.52
2023-04-18T10:03:10.110Z,19.05
2023-04-18T10:08:14.417Z,19.28
2023-04-18T10:13:19.178Z,20.22
2023-04-18T10:18:25.246Z,20.75
2023-04-18T10:23:43.881Z,20.99
2023-04-18T10:28:59.803Z,20.70
2023-04-18T10:34:07.368Z,21.32
2023-04-18T10:39:30.383Z,21.35
2023-04-18T10:44:33.123Z,20.97
2023-04-18T10:49:38.916Z,20.71
2023-04-18T10:54:52.623Z,20.88
2023-04-18T10:59:56.773Z,21.45
2023-04-18T11:05:01.900Z,21.41
2023-04-18T11:10:08.829Z,21.98
2023-04-18T11:15:18.173Z,22.03
2023-04-18T11:20:23.465Z,21.83
2023-04-18T11:25:32.235Z,22.20
2023-04-18T11:30:39.853Z,21.98
2023-04-18T11:35:46.731Z,21.86
2023-04-18T11:40:51.317Z,21.64
2023-04-18T11:45:56.569Z,21.47
2023-04-18T11:50:59.493Z,21.94
2023-04-18T11:56:04.026Z,22.72
2023-04-18T12:01:21.285Z,23.43
2023-04-18T12:06:24.146Z,23.98
2023-04-18T12:11:27.147Z,24.71
2023-04-18T12:16:31.139Z,24.59
2023-04-18T12:21:33.785Z,24.79
2023-04-18T12:26:46.517Z,24.89
2023-04-18T12:31:49.367Z,24.83
2023-04-18T12:36:52.686Z,25.31
2023-04-18T12:41:55.577Z,25.82
2023-04-18T12:47:01.143Z,25.64
2023-04-18T12:52:09.064Z,25.96
2023-04-18T12:57:11.845Z,25.93
2023-04-18T13:02:14.957Z,25.96
2023-04-18T13:07:19.168Z,25.76
2023-04-18T13:12:22.808Z,26.03
2023-04-18T13:17:27.116Z,26.42
2023-04-18T13:22:31.263Z,26.35
2023-04-18T13:27:35.465Z,26.25
2023-04-18T13:32:41.469Z,26.66
2023-04-18T13:37:46.543Z,26.87
2023-04-18T13:42:50.703Z,27.00
2023-04-18T13:47:53.995Z,27.05
2023-04-18T13:52:56.824Z,27.12
2023-04-18T13:58:00.197Z,27.09
2023-04-18T14:03:03.328Z,27.00
2023-04-18T14:08:06.992Z,27.01
2023-04-18T14:13:10.778Z,26.81
2023-04-18T14:18:13.897Z,26.81
2023-04-18T14:23:16.649Z,26.80
2023-04-18T14:28:22.970Z,26.86
2023-04-18T14:33:28.621Z,26.91
2023-04-18T14:38:31.522Z,27.33
2023-04-18T14:43:34.389Z,27.05
2023-04-18T14:48:37.235Z,27.37
2023-04-18T14:53:40.059Z,27.81
2023-04-18T14:58:44.074Z,27.73
2023-04-18T15:03:47.252Z,28.42
2023-04-18T15:08:50.267Z,28.49
2023-04-18T15:13:56.206Z,28.90
2023-04-18T15:19:00.727Z,29.08
2023-04-18T15:24:05.112Z,29.69
2023-04-18T15:29:08.306Z,30.22
2023-04-18T15:34:12.542Z,30.89
2023-04-18T15:39:18.389Z,31.07
2023-04-18T15:44:22.316Z,31.35
2023-04-18T15:49:25.506Z,31.91
2023-04-18T15:54:28.265Z,31.90
2023-04-18T15:59:31.420Z,32.02
2023-04-18T16:04:34.252Z,32.78
2023-04-18T16:09:37.976Z,33.23
2023-04-18T16:14:41.125Z,33.48
2023-04-18T16:19:44.193Z,33.41
2023-04-18T16:24:48.338Z,33.98
2023-04-18T16:29:51.301Z,33.96
2023-04-18T16:34:54.939Z,34.33
2023-04-18T16:39:58.088Z,34.60
2023-04-18T16:45:02.144Z,34.32
2023-04-18T16:50:08.408Z,33.41
2023-04-18T16:55:11.482Z,32.83
2023-04-18T17:00:14.918Z,32.60
2023-04-18T17:05:18.969Z,32.57
2023-04-18T17:10:22.746Z,32.77
2023-04-18T17:15:26.539Z,33.01
2023-04-18T17:20:29.436Z,33.00
2023-04-18T17:25:32.453Z,32.97
2023-04-18T17:30:35.440Z,32.57
2023-04-18T17:35:44.413Z,32.48
2023-04-18T17:40:47.241Z,32.20
2023-04-18T17:45:50.012Z,31.89
2023-04-18T17:50:53.062Z,31.59
2023-04-18T17:55:59.370Z,31.12
2023-04-18T18:01:02.182Z,30.98
2023-04-18T18:06:05.299Z,31.03
2023-04-18T18:11:08.252Z,30.96
2023-04-18T18:16:11.217Z,31.13
2023-04-18T18:21:16.734Z,31.17
2023-04-18T18:26:19.442Z,31.62
2023-04-18T18:31:25.102Z,31.75
2023-04-18T18:36:28.819Z,32.11
2023-04-18T18:41:32.270Z,32.42
2023-04-18T18:46:35.711Z,32.50
2023-04-18T18:51:38.605Z,33.00
2023-04-18T18:56:42.981Z,33.37
2023-04-18T19:01:47.274Z,33.26
2023-04-18T19:06:50.128Z,33.68
2023-04-18T19:11:52.938Z,33.26
2023-04-18T19:16:58.068Z,33.18
2023-04-18T19:22:26.169Z,33.56
2023-04-18T19:27:28.920Z,33.52
2023-04-18T19:32:32.799Z,33.35
2023-04-18T19:37:36.249Z,33.77
2023-04-18T19:42:39.181Z,33.82
2023-04-18T19:47:44.548Z,34.13
2023-04-18T19:52:47.518Z,33.98
2023-04-18T19:57:56.838Z,34.32
2023-04-18T20:02:59.499Z,34.04
2023-04-18T20:08:02.347Z,34.35
2023-04-18T20:13:33.177Z,34.64
2023-04-18T20:18:41.730Z,34.78
2023-04-18T20:23:45.569Z,35.05
2023-04-18T20:29:24.688Z,35.44
2023-04-18T20:34:27.460Z,35.50
2023-04-18T20:39:48.751Z,35.73
2023-04-18T20:44:55.043Z,36.35
2023-04-18T20:50:34.817Z,36.58
2023-04-18T20:55:56.497Z,37.60
2023-04-18T21:00:59.369Z,38.16
2023-04-18T21:06:22.242Z,39.02
2023-04-18T21:11:25.312Z,39.30
2023-04-18T21:16:28.169Z,39.87
2023-04-18T21:21:31.856Z,40.20
2023-04-18T21:26:34.828Z,40.96
2023-04-18T21:31:37.730Z,41.17
